sensor_id;sensor_type;location;lat;lon;timestamp;P1;durP1;ratioP1;P2;durP2;ratioP2
10699;SDS011;5401;41.986;21.452;2023-02-02T00:01:18;121.33;;;73.10;;
10699;SDS011;5401;41.986;21.452;2023-02-02T00:03:47;135.57;;;80.67;;
10699;SDS011;5401;41.986;21.452;2023-02-02T00:06:16;123.50;;;74.13;;
10699;SDS011;5401;41.986;21.452;2023-02-02T00:08:44;134.50;;;78.07;;
10699;SDS011;5401;41.986;21.452;2023-02-02T00:11:12;121.77;;;75.93;;
10699;SDS011;5401;41.986;21.452;2023-02-02T00:13:42;121.17;;;70.00;;
10699;SDS011;5401;41.986;21.452;2023-02-02T00:16:20;125.03;;;74.93;;
10699;SDS011;5401;41.986;21.452;2023-02-02T00:19:04;128.30;;;80.03;;
10699;SDS011;5401;41.986;21.452;2023-02-02T00:21:32;136.30;;;78.30;;
10699;SDS011;5401;41.986;21.452;2023-02-02T00:24:00;121.57;;;75.93;;
10699;SDS011;5401;41.986;21.452;2023-02-02T00:26:28;121.03;;;79.17;;
10699;SDS011;5401;41.986;21.452;2023-02-02T00:28:57;121.67;;;77.30;;
10699;SDS011;5401;41.986;21.452;2023-02-02T00:31:24;135.80;;;75.53;;
10699;SDS011;5401;41.986;21.452;2023-02-02T00:33:52;112.17;;;70.93;;
10699;SDS011;5401;41.986;21.452;2023-02-02T00:36:20;126.67;;;77.87;;
10699;SDS011;5401;41.986;21.452;2023-02-02T00:38:48;125.20;;;74.80;;
10699;SDS011;5401;41.986;21.452;2023-02-02T00:41:17;107.27;;;64.73;;
10699;SDS011;5401;41.986;21.452;2023-02-02T00:43:45;91.40;;;57.87;;
10699;SDS011;5401;41.986;21.452;2023-02-02T00:46:35;88.83;;;50.67;;
10699;SDS011;5401;41.986;21.452;2023-02-02T00:49:04;66.07;;;41.63;;
10699;SDS011;5401;41.986;21.452;2023-02-02T00:51:32;57.87;;;36.77;;
10699;SDS011;5401;41.986;21.452;2023-02-02T00:53:59;70.70;;;41.30;;
10699;SDS011;5401;41.986;21.452;2023-02-02T00:56:27;54.63;;;35.07;;
10699;SDS011;5401;41.986;21.452;2023-02-02T00:58:54;69.00;;;41.27;;
10699;SDS011;5401;41.986;21.452;2023-02-02T01:01:22;68.57;;;40.63;;
10699;SDS011;5401;41.986;21.452;2023-02-02T01:03:51;76.43;;;45.17;;
10699;SDS011;5401;41.986;21.452;2023-02-02T01:06:19;65.97;;;38.30;;
10699;SDS011;5401;41.986;21.452;2023-02-02T01:08:46;69.57;;;39.20;;
10699;SDS011;5401;41.986;21.452;2023-02-02T01:11:14;66.50;;;42.57;;
10699;SDS011;5401;41.986;21.452;2023-02-02T01:13:42;63.90;;;40.80;;
10699;SDS011;5401;41.986;21.452;2023-02-02T01:16:09;58.57;;;38.70;;
10699;SDS011;5401;41.986;21.452;2023-02-02T01:18:39;66.07;;;41.17;;
10699;SDS011;5401;41.986;21.452;2023-02-02T01:21:09;64.13;;;39.83;;
10699;SDS011;5401;41.986;21.452;2023-02-02T01:23:37;62.60;;;39.67;;
10699;SDS011;5401;41.986;21.452;2023-02-02T01:26:06;72.23;;;43.87;;
10699;SDS011;5401;41.986;21.452;2023-02-02T01:28:35;59.43;;;38.90;;
10699;SDS011;5401;41.986;21.452;2023-02-02T01:31:06;60.17;;;38.60;;
10699;SDS011;5401;41.986;21.452;2023-02-02T01:33:35;60.70;;;37.77;;
10699;SDS011;5401;41.986;21.452;2023-02-02T01:36:05;63.30;;;41.57;;
10699;SDS011;5401;41.986;21.452;2023-02-02T01:38:36;62.07;;;40.73;;
10699;SDS011;5401;41.986;21.452;2023-02-02T01:41:03;65.47;;;42.07;;
10699;SDS011;5401;41.986;21.452;2023-02-02T01:46:17;71.57;;;43.13;;
10699;SDS011;5401;41.986;21.452;2023-02-02T01:48:46;70.57;;;44.50;;
10699;SDS011;5401;41.986;21.452;2023-02-02T01:51:18;68.07;;;44.30;;
10699;SDS011;5401;41.986;21.452;2023-02-02T01:53:50;69.03;;;46.33;;
10699;SDS011;5401;41.986;21.452;2023-02-02T01:56:24;69.47;;;44.40;;
10699;SDS011;5401;41.986;21.452;2023-02-02T01:59:01;73.90;;;47.17;;
10699;SDS011;5401;41.986;21.452;2023-02-02T02:01:29;72.73;;;46.37;;
10699;SDS011;5401;41.986;21.452;2023-02-02T02:03:57;76.23;;;46.13;;
10699;SDS011;5401;41.986;21.452;2023-02-02T02:06:25;72.87;;;47.10;;
10699;SDS011;5401;41.986;21.452;2023-02-02T02:08:55;78.70;;;50.27;;
10699;SDS011;5401;41.986;21.452;2023-02-02T02:11:26;89.93;;;51.03;;
10699;SDS011;5401;41.986;21.452;2023-02-02T02:13:54;75.10;;;48.97;;
10699;SDS011;5401;41.986;21.452;2023-02-02T02:16:47;71.70;;;47.30;;
10699;SDS011;5401;41.986;21.452;2023-02-02T02:22:47;98.93;;;55.30;;
10699;SDS011;5401;41.986;21.452;2023-02-02T02:25:59;82.70;;;51.97;;
10699;SDS011;5401;41.986;21.452;2023-02-02T02:29:07;86.40;;;51.77;;
10699;SDS011;5401;41.986;21.452;2023-02-02T02:34:45;88.90;;;52.60;;
10699;SDS011;5401;41.986;21.452;2023-02-02T02:37:21;79.57;;;49.07;;
10699;SDS011;5401;41.986;21.452;2023-02-02T02:39:56;79.27;;;47.73;;
10699;SDS011;5401;41.986;21.452;2023-02-02T02:42:29;69.93;;;43.13;;
10699;SDS011;5401;41.986;21.452;2023-02-02T02:45:01;68.87;;;43.17;;
10699;SDS011;5401;41.986;21.452;2023-02-02T02:47:32;60.27;;;39.10;;
10699;SDS011;5401;41.986;21.452;2023-02-02T02:50:02;58.70;;;36.30;;
10699;SDS011;5401;41.986;21.452;2023-02-02T02:52:31;61.33;;;35.83;;
10699;SDS011;5401;41.986;21.452;2023-02-02T02:55:02;55.67;;;34.93;;
10699;SDS011;5401;41.986;21.452;2023-02-02T02:57:36;57.57;;;35.97;;
10699;SDS011;5401;41.986;21.452;2023-02-02T03:00:13;64.70;;;39.67;;
10699;SDS011;5401;41.986;21.452;2023-02-02T03:02:52;54.83;;;37.43;;
10699;SDS011;5401;41.986;21.452;2023-02-02T03:05:30;59.53;;;39.70;;
10699;SDS011;5401;41.986;21.452;2023-02-02T03:08:04;59.43;;;37.20;;
10699;SDS011;5401;41.986;21.452;2023-02-02T03:10:37;58.70;;;37.17;;
10699;SDS011;5401;41.986;21.452;2023-02-02T03:13:07;56.40;;;36.63;;
10699;SDS011;5401;41.986;21.452;2023-02-02T03:15:39;57.27;;;35.70;;
10699;SDS011;5401;41.986;21.452;2023-02-02T03:18:08;56.57;;;35.73;;
10699;SDS011;5401;41.986;21.452;2023-02-02T03:20:37;52.07;;;35.03;;
10699;SDS011;5401;41.986;21.452;2023-02-02T03:23:04;57.23;;;35.53;;
10699;SDS011;5401;41.986;21.452;2023-02-02T03:25:32;52.77;;;32.87;;
10699;SDS011;5401;41.986;21.452;2023-02-02T03:27:59;50.40;;;32.90;;
10699;SDS011;5401;41.986;21.452;2023-02-02T03:30:27;53.13;;;33.80;;
10699;SDS011;5401;41.986;21.452;2023-02-02T03:32:55;47.70;;;31.77;;
10699;SDS011;5401;41.986;21.452;2023-02-02T03:35:24;64.13;;;38.37;;
10699;SDS011;5401;41.986;21.452;2023-02-02T03:37:51;70.37;;;43.07;;
10699;SDS011;5401;41.986;21.452;2023-02-02T03:40:19;67.27;;;40.97;;
10699;SDS011;5401;41.986;21.452;2023-02-02T03:42:46;76.20;;;40.80;;
10699;SDS011;5401;41.986;21.452;2023-02-02T03:45:14;75.27;;;42.10;;
10699;SDS011;5401;41.986;21.452;2023-02-02T03:47:42;73.77;;;41.50;;
10699;SDS011;5401;41.986;21.452;2023-02-02T03:50:10;61.00;;;38.23;;
10699;SDS011;5401;41.986;21.452;2023-02-02T03:52:39;69.23;;;37.43;;
10699;SDS011;5401;41.986;21.452;2023-02-02T03:55:07;54.30;;;36.23;;
10699;SDS011;5401;41.986;21.452;2023-02-02T03:57:35;66.90;;;37.60;;
10699;SDS011;5401;41.986;21.452;2023-02-02T04:00:04;61.67;;;38.93;;
10699;SDS011;5401;41.986;21.452;2023-02-02T04:02:32;60.17;;;36.03;;
10699;SDS011;5401;41.986;21.452;2023-02-02T04:05:00;62.80;;;37.23;;
10699;SDS011;5401;41.986;21.452;2023-02-02T04:07:27;63.63;;;38.37;;
10699;SDS011;5401;41.986;21.452;2023-02-02T04:09:57;64.97;;;41.67;;
10699;SDS011;5401;41.986;21.452;2023-02-02T04:12:24;68.83;;;42.40;;
10699;SDS011;5401;41.986;21.452;2023-02-02T04:14:52;71.37;;;42.87;;
10699;SDS011;5401;41.986;21.452;2023-02-02T04:17:19;69.37;;;39.50;;
10699;SDS011;5401;41.986;21.452;2023-02-02T04:19:48;65.77;;;38.20;;
10699;SDS011;5401;41.986;21.452;2023-02-02T04:22:17;66.33;;;38.90;;
10699;SDS011;5401;41.986;21.452;2023-02-02T04:24:45;61.07;;;38.27;;
10699;SDS011;5401;41.986;21.452;2023-02-02T04:27:14;59.43;;;37.53;;
10699;SDS011;5401;41.986;21.452;2023-02-02T04:29:41;55.60;;;37.03;;
10699;SDS011;5401;41.986;21.452;2023-02-02T04:32:09;53.90;;;36.60;;
10699;SDS011;5401;41.986;21.452;2023-02-02T04:34:36;54.03;;;35.53;;
10699;SDS011;5401;41.986;21.452;2023-02-02T04:37:04;61.43;;;39.73;;
10699;SDS011;5401;41.986;21.452;2023-02-02T04:39:31;56.53;;;35.33;;
10699;SDS011;5401;41.986;21.452;2023-02-02T04:41:59;58.57;;;37.47;;
10699;SDS011;5401;41.986;21.452;2023-02-02T04:44:28;64.00;;;37.37;;
10699;SDS011;5401;41.986;21.452;2023-02-02T04:46:56;60.83;;;37.07;;
10699;SDS011;5401;41.986;21.452;2023-02-02T04:49:23;59.63;;;38.03;;
10699;SDS011;5401;41.986;21.452;2023-02-02T04:51:51;63.23;;;37.67;;
10699;SDS011;5401;41.986;21.452;2023-02-02T04:54:18;61.73;;;39.77;;
10699;SDS011;5401;41.986;21.452;2023-02-02T04:56:46;61.67;;;37.80;;
10699;SDS011;5401;41.986;21.452;2023-02-02T04:59:13;60.40;;;39.77;;
10699;SDS011;5401;41.986;21.452;2023-02-02T05:01:42;66.73;;;38.10;;
10699;SDS011;5401;41.986;21.452;2023-02-02T05:04:10;63.77;;;39.60;;
10699;SDS011;5401;41.986;21.452;2023-02-02T05:06:37;59.23;;;37.33;;
10699;SDS011;5401;41.986;21.452;2023-02-02T05:09:05;64.27;;;36.47;;
10699;SDS011;5401;41.986;21.452;2023-02-02T05:11:33;57.70;;;38.27;;
10699;SDS011;5401;41.986;21.452;2023-02-02T05:14:00;59.77;;;36.97;;
10699;SDS011;5401;41.986;21.452;2023-02-02T05:16:28;53.50;;;35.30;;
10699;SDS011;5401;41.986;21.452;2023-02-02T05:18:57;51.67;;;36.10;;
10699;SDS011;5401;41.986;21.452;2023-02-02T05:21:25;59.50;;;36.53;;
10699;SDS011;5401;41.986;21.452;2023-02-02T05:23:53;53.07;;;35.33;;
10699;SDS011;5401;41.986;21.452;2023-02-02T05:26:21;57.50;;;35.07;;
10699;SDS011;5401;41.986;21.452;2023-02-02T05:28:51;55.20;;;34.53;;
10699;SDS011;5401;41.986;21.452;2023-02-02T05:31:19;59.43;;;36.40;;
10699;SDS011;5401;41.986;21.452;2023-02-02T05:33:47;55.87;;;34.47;;
10699;SDS011;5401;41.986;21.452;2023-02-02T05:36:16;53.83;;;35.47;;
10699;SDS011;5401;41.986;21.452;2023-02-02T05:38:43;52.03;;;33.63;;
10699;SDS011;5401;41.986;21.452;2023-02-02T05:41:11;52.03;;;31.87;;
10699;SDS011;5401;41.986;21.452;2023-02-02T05:43:38;51.90;;;31.07;;
10699;SDS011;5401;41.986;21.452;2023-02-02T05:46:06;52.00;;;32.90;;
10699;SDS011;5401;41.986;21.452;2023-02-02T05:48:33;47.47;;;30.27;;
10699;SDS011;5401;41.986;21.452;2023-02-02T05:51:02;60.60;;;34.17;;
10699;SDS011;5401;41.986;21.452;2023-02-02T05:53:34;56.50;;;38.00;;
10699;SDS011;5401;41.986;21.452;2023-02-02T05:56:01;59.73;;;38.60;;
10699;SDS011;5401;41.986;21.452;2023-02-02T05:58:29;61.33;;;39.87;;
10699;SDS011;5401;41.986;21.452;2023-02-02T06:00:57;72.70;;;38.97;;
10699;SDS011;5401;41.986;21.452;2023-02-02T06:03:24;63.30;;;40.53;;
10699;SDS011;5401;41.986;21.452;2023-02-02T06:05:52;67.67;;;42.83;;
10699;SDS011;5401;41.986;21.452;2023-02-02T06:08:19;66.37;;;41.07;;
10699;SDS011;5401;41.986;21.452;2023-02-02T06:10:48;72.43;;;41.67;;
10699;SDS011;5401;41.986;21.452;2023-02-02T06:13:16;64.73;;;37.50;;
10699;SDS011;5401;41.986;21.452;2023-02-02T06:15:43;69.40;;;39.53;;
10699;SDS011;5401;41.986;21.452;2023-02-02T06:18:10;66.20;;;39.40;;
10699;SDS011;5401;41.986;21.452;2023-02-02T06:20:38;74.20;;;41.77;;
10699;SDS011;5401;41.986;21.452;2023-02-02T06:23:05;72.53;;;39.23;;
10699;SDS011;5401;41.986;21.452;2023-02-02T06:25:33;70.60;;;40.53;;
10699;SDS011;5401;41.986;21.452;2023-02-02T06:28:02;72.30;;;41.43;;
10699;SDS011;5401;41.986;21.452;2023-02-02T06:30:30;64.90;;;37.47;;
10699;SDS011;5401;41.986;21.452;2023-02-02T06:32:57;77.13;;;41.93;;
10699;SDS011;5401;41.986;21.452;2023-02-02T06:35:25;61.80;;;39.03;;
10699;SDS011;5401;41.986;21.452;2023-02-02T06:37:53;65.53;;;38.93;;
10699;SDS011;5401;41.986;21.452;2023-02-02T06:40:20;67.00;;;37.03;;
10699;SDS011;5401;41.986;21.452;2023-02-02T06:42:53;54.63;;;32.90;;
10699;SDS011;5401;41.986;21.452;2023-02-02T06:45:23;50.90;;;31.30;;
10699;SDS011;5401;41.986;21.452;2023-02-02T06:47:50;48.17;;;30.87;;
10699;SDS011;5401;41.986;21.452;2023-02-02T06:50:19;57.67;;;33.63;;
10699;SDS011;5401;41.986;21.452;2023-02-02T06:52:46;54.87;;;30.90;;
10699;SDS011;5401;41.986;21.452;2023-02-02T06:55:14;59.73;;;32.77;;
10699;SDS011;5401;41.986;21.452;2023-02-02T06:57:42;55.80;;;31.30;;
10699;SDS011;5401;41.986;21.452;2023-02-02T07:00:11;54.17;;;30.70;;
10699;SDS011;5401;41.986;21.452;2023-02-02T07:02:41;48.60;;;29.97;;
10699;SDS011;5401;41.986;21.452;2023-02-02T07:05:11;50.50;;;30.40;;
10699;SDS011;5401;41.986;21.452;2023-02-02T07:07:38;51.97;;;29.73;;
10699;SDS011;5401;41.986;21.452;2023-02-02T07:10:06;41.20;;;26.70;;
10699;SDS011;5401;41.986;21.452;2023-02-02T07:12:34;44.97;;;26.10;;
10699;SDS011;5401;41.986;21.452;2023-02-02T07:15:02;46.00;;;27.13;;
10699;SDS011;5401;41.986;21.452;2023-02-02T07:17:32;46.97;;;28.40;;
10699;SDS011;5401;41.986;21.452;2023-02-02T07:20:01;42.80;;;25.97;;
10699;SDS011;5401;41.986;21.452;2023-02-02T07:22:28;39.60;;;26.13;;
10699;SDS011;5401;41.986;21.452;2023-02-02T07:24:56;80.00;;;36.63;;
10699;SDS011;5401;41.986;21.452;2023-02-02T07:27:23;42.00;;;28.67;;
10699;SDS011;5401;41.986;21.452;2023-02-02T07:29:51;46.70;;;28.83;;
10699;SDS011;5401;41.986;21.452;2023-02-02T07:32:19;47.87;;;29.07;;
10699;SDS011;5401;41.986;21.452;2023-02-02T07:34:46;39.90;;;28.10;;
10699;SDS011;5401;41.986;21.452;2023-02-02T07:37:15;44.57;;;30.43;;
10699;SDS011;5401;41.986;21.452;2023-02-02T07:39:43;47.27;;;30.37;;
10699;SDS011;5401;41.986;21.452;2023-02-02T07:42:12;46.13;;;32.77;;
10699;SDS011;5401;41.986;21.452;2023-02-02T07:44:39;47.23;;;31.43;;
10699;SDS011;5401;41.986;21.452;2023-02-02T07:47:07;48.20;;;32.73;;
10699;SDS011;5401;41.986;21.452;2023-02-02T07:49:34;53.70;;;36.07;;
10699;SDS011;5401;41.986;21.452;2023-02-02T07:52:02;51.53;;;35.30;;
10699;SDS011;5401;41.986;21.452;2023-02-02T07:54:31;54.50;;;36.63;;
10699;SDS011;5401;41.986;21.452;2023-02-02T07:56:58;54.13;;;35.17;;
10699;SDS011;5401;41.986;21.452;2023-02-02T07:59:26;44.63;;;32.47;;
10699;SDS011;5401;41.986;21.452;2023-02-02T08:01:54;51.80;;;33.57;;
10699;SDS011;5401;41.986;21.452;2023-02-02T08:04:21;48.77;;;33.13;;
10699;SDS011;5401;41.986;21.452;2023-02-02T08:06:49;53.03;;;36.07;;
10699;SDS011;5401;41.986;21.452;2023-02-02T08:09:16;47.00;;;33.80;;
10699;SDS011;5401;41.986;21.452;2023-02-02T08:11:45;43.30;;;32.50;;
10699;SDS011;5401;41.986;21.452;2023-02-02T08:14:13;48.77;;;31.73;;
10699;SDS011;5401;41.986;21.452;2023-02-02T08:16:40;43.67;;;30.60;;
10699;SDS011;5401;41.986;21.452;2023-02-02T08:19:08;44.97;;;32.77;;
10699;SDS011;5401;41.986;21.452;2023-02-02T08:21:36;46.83;;;32.10;;
10699;SDS011;5401;41.986;21.452;2023-02-02T08:24:04;46.13;;;31.73;;
10699;SDS011;5401;41.986;21.452;2023-02-02T08:26:31;45.97;;;32.40;;
10699;SDS011;5401;41.986;21.452;2023-02-02T08:29:01;45.40;;;32.57;;
10699;SDS011;5401;41.986;21.452;2023-02-02T08:31:30;48.20;;;32.63;;
10699;SDS011;5401;41.986;21.452;2023-02-02T08:33:59;46.67;;;33.87;;
10699;SDS011;5401;41.986;21.452;2023-02-02T08:36:28;46.13;;;33.63;;
10699;SDS011;5401;41.986;21.452;2023-02-02T08:38:58;44.43;;;33.03;;
10699;SDS011;5401;41.986;21.452;2023-02-02T08:41:28;49.90;;;35.40;;
10699;SDS011;5401;41.986;21.452;2023-02-02T08:43:55;49.43;;;34.90;;
10699;SDS011;5401;41.986;21.452;2023-02-02T08:46:24;49.40;;;34.47;;
10699;SDS011;5401;41.986;21.452;2023-02-02T08:48:52;48.57;;;32.63;;
10699;SDS011;5401;41.986;21.452;2023-02-02T08:51:19;46.87;;;31.43;;
10699;SDS011;5401;41.986;21.452;2023-02-02T08:53:47;39.80;;;30.23;;
10699;SDS011;5401;41.986;21.452;2023-02-02T08:56:15;46.13;;;31.50;;
10699;SDS011;5401;41.986;21.452;2023-02-02T08:58:44;41.63;;;30.13;;
10699;SDS011;5401;41.986;21.452;2023-02-02T09:01:13;43.03;;;30.70;;
10699;SDS011;5401;41.986;21.452;2023-02-02T09:03:44;42.87;;;30.50;;
10699;SDS011;5401;41.986;21.452;2023-02-02T09:06:12;40.40;;;31.70;;
10699;SDS011;5401;41.986;21.452;2023-02-02T09:08:41;44.90;;;33.80;;
10699;SDS011;5401;41.986;21.452;2023-02-02T09:11:10;45.20;;;32.03;;
10699;SDS011;5401;41.986;21.452;2023-02-02T09:13:39;45.67;;;31.77;;
10699;SDS011;5401;41.986;21.452;2023-02-02T09:16:08;47.47;;;33.63;;
10699;SDS011;5401;41.986;21.452;2023-02-02T09:18:36;43.67;;;32.50;;
10699;SDS011;5401;41.986;21.452;2023-02-02T09:21:05;44.20;;;31.63;;
10699;SDS011;5401;41.986;21.452;2023-02-02T09:23:35;41.40;;;30.33;;
10699;SDS011;5401;41.986;21.452;2023-02-02T09:26:10;38.33;;;30.77;;
10699;SDS011;5401;41.986;21.452;2023-02-02T09:28:40;42.17;;;29.77;;
10699;SDS011;5401;41.986;21.452;2023-02-02T09:31:09;42.60;;;28.87;;
10699;SDS011;5401;41.986;21.452;2023-02-02T09:33:36;37.00;;;26.20;;
10699;SDS011;5401;41.986;21.452;2023-02-02T09:36:07;41.97;;;29.53;;
10699;SDS011;5401;41.986;21.452;2023-02-02T09:38:35;37.87;;;29.07;;
10699;SDS011;5401;41.986;21.452;2023-02-02T09:43:57;32.87;;;21.93;;
10699;SDS011;5401;41.986;21.452;2023-02-02T09:46:37;28.67;;;20.77;;
10699;SDS011;5401;41.986;21.452;2023-02-02T09:49:16;29.83;;;19.80;;
10699;SDS011;5401;41.986;21.452;2023-02-02T09:51:50;28.10;;;20.67;;
10699;SDS011;5401;41.986;21.452;2023-02-02T09:54:25;33.40;;;22.00;;
10699;SDS011;5401;41.986;21.452;2023-02-02T09:56:58;31.67;;;20.83;;
10699;SDS011;5401;41.986;21.452;2023-02-02T09:59:32;27.50;;;19.47;;
10699;SDS011;5401;41.986;21.452;2023-02-02T10:02:03;22.73;;;18.33;;
10699;SDS011;5401;41.986;21.452;2023-02-02T10:04:39;33.53;;;17.90;;
10699;SDS011;5401;41.986;21.452;2023-02-02T10:07:11;26.13;;;17.00;;
10699;SDS011;5401;41.986;21.452;2023-02-02T10:09:45;33.30;;;17.50;;
10699;SDS011;5401;41.986;21.452;2023-02-02T10:12:17;24.10;;;18.30;;
10699;SDS011;5401;41.986;21.452;2023-02-02T10:14:57;25.73;;;18.53;;
10699;SDS011;5401;41.986;21.452;2023-02-02T10:17:35;23.80;;;17.10;;
10699;SDS011;5401;41.986;21.452;2023-02-02T10:20:13;20.90;;;16.17;;
10699;SDS011;5401;41.986;21.452;2023-02-02T10:22:48;27.40;;;17.30;;
10699;SDS011;5401;41.986;21.452;2023-02-02T10:25:16;21.37;;;16.03;;
10699;SDS011;5401;41.986;21.452;2023-02-02T10:27:49;21.60;;;14.43;;
10699;SDS011;5401;41.986;21.452;2023-02-02T10:30:24;23.57;;;16.40;;
10699;SDS011;5401;41.986;21.452;2023-02-02T10:33:04;19.93;;;14.60;;
10699;SDS011;5401;41.986;21.452;2023-02-02T10:35:37;18.87;;;13.57;;
10699;SDS011;5401;41.986;21.452;2023-02-02T10:38:12;17.27;;;13.70;;
10699;SDS011;5401;41.986;21.452;2023-02-02T10:40:51;21.17;;;13.03;;
10699;SDS011;5401;41.986;21.452;2023-02-02T10:43:36;19.23;;;13.03;;
10699;SDS011;5401;41.986;21.452;2023-02-02T10:46:19;21.73;;;12.30;;
10699;SDS011;5401;41.986;21.452;2023-02-02T10:48:55;16.93;;;12.53;;
10699;SDS011;5401;41.986;21.452;2023-02-02T10:51:37;17.43;;;12.73;;
10699;SDS011;5401;41.986;21.452;2023-02-02T10:54:09;17.40;;;12.90;;
10699;SDS011;5401;41.986;21.452;2023-02-02T10:56:52;21.33;;;13.20;;
10699;SDS011;5401;41.986;21.452;2023-02-02T10:59:27;18.03;;;12.30;;
10699;SDS011;5401;41.986;21.452;2023-02-02T11:01:58;18.93;;;13.10;;
10699;SDS011;5401;41.986;21.452;2023-02-02T11:04:27;14.40;;;11.20;;
10699;SDS011;5401;41.986;21.452;2023-02-02T11:07:12;20.07;;;11.63;;
10699;SDS011;5401;41.986;21.452;2023-02-02T11:09:46;18.57;;;10.97;;
10699;SDS011;5401;41.986;21.452;2023-02-02T11:12:15;18.30;;;10.70;;
10699;SDS011;5401;41.986;21.452;2023-02-02T11:14:50;14.30;;;10.60;;
10699;SDS011;5401;41.986;21.452;2023-02-02T11:17:20;14.90;;;10.43;;
10699;SDS011;5401;41.986;21.452;2023-02-02T11:19:50;19.63;;;10.47;;
10699;SDS011;5401;41.986;21.452;2023-02-02T11:22:27;16.73;;;10.70;;
10699;SDS011;5401;41.986;21.452;2023-02-02T11:25:01;16.37;;;11.20;;
10699;SDS011;5401;41.986;21.452;2023-02-02T11:27:31;15.13;;;11.80;;
10699;SDS011;5401;41.986;21.452;2023-02-02T11:30:11;21.57;;;11.73;;
10699;SDS011;5401;41.986;21.452;2023-02-02T11:32:46;13.00;;;9.40;;
10699;SDS011;5401;41.986;21.452;2023-02-02T11:35:19;12.53;;;10.43;;
10699;SDS011;5401;41.986;21.452;2023-02-02T11:37:51;13.43;;;9.60;;
10699;SDS011;5401;41.986;21.452;2023-02-02T11:40:27;12.97;;;9.20;;
10699;SDS011;5401;41.986;21.452;2023-02-02T11:42:57;12.87;;;9.17;;
10699;SDS011;5401;41.986;21.452;2023-02-02T11:45:28;14.67;;;10.70;;
10699;SDS011;5401;41.986;21.452;2023-02-02T11:48:01;16.33;;;10.93;;
10699;SDS011;5401;41.986;21.452;2023-02-02T11:50:31;21.80;;;11.10;;
10699;SDS011;5401;41.986;21.452;2023-02-02T11:52:59;17.23;;;11.77;;
10699;SDS011;5401;41.986;21.452;2023-02-02T11:55:28;18.03;;;10.33;;
10699;SDS011;5401;41.986;21.452;2023-02-02T12:00:53;11.13;;;7.70;;
10699;SDS011;5401;41.986;21.452;2023-02-02T12:03:24;9.17;;;6.07;;
10699;SDS011;5401;41.986;21.452;2023-02-02T12:05:53;11.47;;;7.83;;
10699;SDS011;5401;41.986;21.452;2023-02-02T12:08:21;12.00;;;8.37;;
10699;SDS011;5401;41.986;21.452;2023-02-02T12:10:52;11.20;;;7.33;;
10699;SDS011;5401;41.986;21.452;2023-02-02T12:13:28;11.27;;;7.90;;
10699;SDS011;5401;41.986;21.452;2023-02-02T12:16:29;14.20;;;8.50;;
10699;SDS011;5401;41.986;21.452;2023-02-02T12:19:12;11.67;;;7.57;;
10699;SDS011;5401;41.986;21.452;2023-02-02T12:21:51;16.10;;;8.17;;
10699;SDS011;5401;41.986;21.452;2023-02-02T12:24:28;12.93;;;8.00;;
10699;SDS011;5401;41.986;21.452;2023-02-02T12:27:04;11.67;;;7.60;;
10699;SDS011;5401;41.986;21.452;2023-02-02T12:29:47;12.87;;;7.37;;
10699;SDS011;5401;41.986;21.452;2023-02-02T12:32:25;16.13;;;7.70;;
10699;SDS011;5401;41.986;21.452;2023-02-02T12:35:17;16.23;;;8.03;;
10699;SDS011;5401;41.986;21.452;2023-02-02T12:37:56;9.47;;;7.20;;
10699;SDS011;5401;41.986;21.452;2023-02-02T12:40:37;10.33;;;7.27;;
10699;SDS011;5401;41.986;21.452;2023-02-02T12:43:26;11.33;;;7.10;;
10699;SDS011;5401;41.986;21.452;2023-02-02T12:48:58;13.43;;;8.27;;
10699;SDS011;5401;41.986;21.452;2023-02-02T12:51:44;11.20;;;7.93;;
10699;SDS011;5401;41.986;21.452;2023-02-02T12:54:27;10.20;;;6.83;;
10699;SDS011;5401;41.986;21.452;2023-02-02T12:57:11;13.37;;;7.77;;
10699;SDS011;5401;41.986;21.452;2023-02-02T12:59:53;7.60;;;6.77;;
10699;SDS011;5401;41.986;21.452;2023-02-02T13:02:56;12.60;;;7.30;;
10699;SDS011;5401;41.986;21.452;2023-02-02T13:05:38;10.30;;;7.30;;
10699;SDS011;5401;41.986;21.452;2023-02-02T13:08:19;14.80;;;10.50;;
10699;SDS011;5401;41.986;21.452;2023-02-02T13:10:52;14.70;;;10.30;;
10699;SDS011;5401;41.986;21.452;2023-02-02T13:13:24;12.67;;;9.60;;
10699;SDS011;5401;41.986;21.452;2023-02-02T13:15:58;15.83;;;8.50;;
10699;SDS011;5401;41.986;21.452;2023-02-02T13:18:33;11.27;;;8.53;;
10699;SDS011;5401;41.986;21.452;2023-02-02T13:21:05;13.67;;;8.10;;
10699;SDS011;5401;41.986;21.452;2023-02-02T13:23:38;13.00;;;9.30;;
10699;SDS011;5401;41.986;21.452;2023-02-02T13:26:11;12.57;;;8.43;;
10699;SDS011;5401;41.986;21.452;2023-02-02T13:28:44;13.77;;;9.53;;
10699;SDS011;5401;41.986;21.452;2023-02-02T13:31:20;13.33;;;9.17;;
10699;SDS011;5401;41.986;21.452;2023-02-02T13:33:59;14.73;;;9.27;;
10699;SDS011;5401;41.986;21.452;2023-02-02T13:36:31;14.30;;;10.00;;
10699;SDS011;5401;41.986;21.452;2023-02-02T13:39:08;22.07;;;10.20;;
10699;SDS011;5401;41.986;21.452;2023-02-02T13:41:41;14.07;;;10.33;;
10699;SDS011;5401;41.986;21.452;2023-02-02T13:44:12;18.37;;;10.57;;
10699;SDS011;5401;41.986;21.452;2023-02-02T13:46:46;20.27;;;11.53;;
10699;SDS011;5401;41.986;21.452;2023-02-02T13:49:19;18.77;;;11.13;;
10699;SDS011;5401;41.986;21.452;2023-02-02T13:51:52;17.20;;;10.77;;
10699;SDS011;5401;41.986;21.452;2023-02-02T13:57:39;18.30;;;11.03;;
10699;SDS011;5401;41.986;21.452;2023-02-02T14:00:17;16.30;;;11.13;;
10699;SDS011;5401;41.986;21.452;2023-02-02T14:02:49;14.07;;;10.90;;
10699;SDS011;5401;41.986;21.452;2023-02-02T14:05:22;17.17;;;10.93;;
10699;SDS011;5401;41.986;21.452;2023-02-02T14:07:55;24.73;;;11.67;;
10699;SDS011;5401;41.986;21.452;2023-02-02T14:10:29;19.20;;;11.63;;
10699;SDS011;5401;41.986;21.452;2023-02-02T14:13:08;25.70;;;11.67;;
10699;SDS011;5401;41.986;21.452;2023-02-02T14:16:01;22.57;;;12.60;;
10699;SDS011;5401;41.986;21.452;2023-02-02T14:24:39;16.30;;;11.10;;
10699;SDS011;5401;41.986;21.452;2023-02-02T14:30:31;28.70;;;13.10;;
10699;SDS011;5401;41.986;21.452;2023-02-02T14:36:10;17.80;;;13.37;;
10699;SDS011;5401;41.986;21.452;2023-02-02T14:38:51;20.43;;;13.90;;
10699;SDS011;5401;41.986;21.452;2023-02-02T14:41:29;19.97;;;13.93;;
10699;SDS011;5401;41.986;21.452;2023-02-02T14:44:22;29.83;;;15.03;;
10699;SDS011;5401;41.986;21.452;2023-02-02T14:46:51;24.87;;;14.57;;
10699;SDS011;5401;41.986;21.452;2023-02-02T14:49:21;28.23;;;15.00;;
10699;SDS011;5401;41.986;21.452;2023-02-02T14:51:54;20.47;;;13.33;;
10699;SDS011;5401;41.986;21.452;2023-02-02T14:54:30;31.03;;;15.57;;
10699;SDS011;5401;41.986;21.452;2023-02-02T14:57:01;25.83;;;14.70;;
10699;SDS011;5401;41.986;21.452;2023-02-02T14:59:44;33.60;;;15.90;;
10699;SDS011;5401;41.986;21.452;2023-02-02T15:02:15;30.20;;;15.30;;
10699;SDS011;5401;41.986;21.452;2023-02-02T15:04:46;24.60;;;15.40;;
10699;SDS011;5401;41.986;21.452;2023-02-02T15:13:26;39.43;;;18.67;;
10699;SDS011;5401;41.986;21.452;2023-02-02T15:16:03;32.67;;;17.97;;
10699;SDS011;5401;41.986;21.452;2023-02-02T15:18:38;35.10;;;20.83;;
10699;SDS011;5401;41.986;21.452;2023-02-02T15:21:11;32.57;;;19.20;;
10699;SDS011;5401;41.986;21.452;2023-02-02T15:23:48;53.80;;;32.27;;
10699;SDS011;5401;41.986;21.452;2023-02-02T15:26:16;234.33;;;172.27;;
10699;SDS011;5401;41.986;21.452;2023-02-02T15:28:50;225.93;;;153.10;;